sensor_id;sensor_type;location;lat;lon;timestamp;temperature;humidity
23507;DHT22;11930;53.076;18.250;2022-09-29T00:00:50;8.50;99.90
23507;DHT22;11930;53.076;18.250;2022-09-29T00:03:33;8.50;99.90
23507;DHT22;11930;53.076;18.250;2022-09-29T00:05:59;8.50;99.90
23507;DHT22;11930;53.076;18.250;2022-09-29T00:08:28;8.60;99.90
23507;DHT22;11930;53.076;18.250;2022-09-29T00:10:54;8.50;99.90
23507;DHT22;11930;53.076;18.250;2022-09-29T00:13:21;8.50;99.90
23507;DHT22;11930;53.076;18.250;2022-09-29T00:15:55;8.50;99.90
23507;DHT22;11930;53.076;18.250;2022-09-29T00:18:21;8.50;99.90
23507;DHT22;11930;53.076;18.250;2022-09-29T00:21:02;8.50;99.90
23507;DHT22;11930;53.076;18.250;2022-09-29T00:23:31;8.50;99.90
23507;DHT22;11930;53.076;18.250;2022-09-29T00:28:35;8.50;99.90
23507;DHT22;11930;53.076;18.250;2022-09-29T00:31:03;8.50;99.90
23507;DHT22;11930;53.076;18.250;2022-09-29T00:33:32;8.50;99.90
23507;DHT22;11930;53.076;18.250;2022-09-29T00:36:04;8.50;99.90
23507;DHT22;11930;53.076;18.250;2022-09-29T00:38:31;8.50;99.90
23507;DHT22;11930;53.076;18.250;2022-09-29T00:40:57;8.40;99.90
23507;DHT22;11930;53.076;18.250;2022-09-29T00:46:12;8.40;99.90
23507;DHT22;11930;53.076;18.250;2022-09-29T00:48:40;8.40;99.90
23507;DHT22;11930;53.076;18.250;2022-09-29T00:51:06;8.40;99.90
23507;DHT22;11930;53.076;18.250;2022-09-29T00:53:33;8.40;99.90
23507;DHT22;11930;53.076;18.250;2022-09-29T00:56:03;8.40;99.90
23507;DHT22;11930;53.076;18.250;2022-09-29T00:58:55;8.40;99.90
23507;DHT22;11930;53.076;18.250;2022-09-29T01:01:23;8.40;99.90
23507;DHT22;11930;53.076;18.250;2022-09-29T01:03:55;8.40;99.90
23507;DHT22;11930;53.076;18.250;2022-09-29T01:06:33;8.40;99.90
23507;DHT22;11930;53.076;18.250;2022-09-29T01:09:10;8.40;99.90
23507;DHT22;11930;53.076;18.250;2022-09-29T01:11:39;8.40;99.90
23507;DHT22;11930;53.076;18.250;2022-09-29T01:14:08;8.40;99.90
23507;DHT22;11930;53.076;18.250;2022-09-29T01:16:36;8.40;99.90
23507;DHT22;11930;53.076;18.250;2022-09-29T01:19:12;8.40;99.90
23507;DHT22;11930;53.076;18.250;2022-09-29T01:22:07;8.40;99.90
23507;DHT22;11930;53.076;18.250;2022-09-29T01:30:45;8.40;99.90
23507;DHT22;11930;53.076;18.250;2022-09-29T01:36:03;8.40;99.90
23507;DHT22;11930;53.076;18.250;2022-09-29T01:41:55;8.40;99.90
23507;DHT22;11930;53.076;18.250;2022-09-29T01:44:21;8.40;99.90
23507;DHT22;11930;53.076;18.250;2022-09-29T01:46:57;8.40;99.90
23507;DHT22;11930;53.076;18.250;2022-09-29T01:49:28;8.40;99.90
23507;DHT22;11930;53.076;18.250;2022-09-29T01:52:19;8.40;99.90
23507;DHT22;11930;53.076;18.250;2022-09-29T01:57:30;8.40;99.90
23507;DHT22;11930;53.076;18.250;2022-09-29T02:00:18;8.50;99.90
23507;DHT22;11930;53.076;18.250;2022-09-29T02:02:49;8.50;99.90
23507;DHT22;11930;53.076;18.250;2022-09-29T02:05:25;8.50;99.90
23507;DHT22;11930;53.076;18.250;2022-09-29T02:07:57;8.50;99.90
23507;DHT22;11930;53.076;18.250;2022-09-29T02:10:29;8.50;99.90
23507;DHT22;11930;53.076;18.250;2022-09-29T02:12:58;8.40;99.90
23507;DHT22;11930;53.076;18.250;2022-09-29T02:15:29;8.40;99.90
23507;DHT22;11930;53.076;18.250;2022-09-29T02:18:00;8.40;99.90
23507;DHT22;11930;53.076;18.250;2022-09-29T02:20:27;8.50;99.90
23507;DHT22;11930;53.076;18.250;2022-09-29T02:22:54;8.50;99.90
23507;DHT22;11930;53.076;18.250;2022-09-29T02:25:21;8.50;99.90
23507;DHT22;11930;53.076;18.250;2022-09-29T02:27:48;8.50;99.90
23507;DHT22;11930;53.076;18.250;2022-09-29T02:30:16;8.50;99.90
23507;DHT22;11930;53.076;18.250;2022-09-29T02:32:42;8.50;99.90
23507;DHT22;11930;53.076;18.250;2022-09-29T02:35:10;8.50;99.90
23507;DHT22;11930;53.076;18.250;2022-09-29T02:40:33;8.60;99.90
23507;DHT22;11930;53.076;18.250;2022-09-29T02:45:43;8.60;99.90
23507;DHT22;11930;53.076;18.250;2022-09-29T02:48:44;8.60;99.90
23507;DHT22;11930;53.076;18.250;2022-09-29T02:51:36;8.70;99.90
23507;DHT22;11930;53.076;18.250;2022-09-29T02:59:20;8.70;99.90
23507;DHT22;11930;53.076;18.250;2022-09-29T03:01:52;8.70;99.90
23507;DHT22;11930;53.076;18.250;2022-09-29T03:04:20;8.70;99.90
23507;DHT22;11930;53.076;18.250;2022-09-29T03:06:46;8.70;99.90
23507;DHT22;11930;53.076;18.250;2022-09-29T03:09:13;8.70;99.90
23507;DHT22;11930;53.076;18.250;2022-09-29T03:11:39;8.70;99.90
23507;DHT22;11930;53.076;18.250;2022-09-29T03:14:05;8.70;99.90
23507;DHT22;11930;53.076;18.250;2022-09-29T03:16:32;8.70;99.90
23507;DHT22;11930;53.076;18.250;2022-09-29T03:18:58;8.80;99.90
23507;DHT22;11930;53.076;18.250;2022-09-29T03:21:24;8.80;99.90
23507;DHT22;11930;53.076;18.250;2022-09-29T03:23:50;8.80;99.90
23507;DHT22;11930;53.076;18.250;2022-09-29T03:26:16;8.80;99.90
23507;DHT22;11930;53.076;18.250;2022-09-29T03:28:42;8.80;99.90
23507;DHT22;11930;53.076;18.250;2022-09-29T03:31:09;8.80;99.90
23507;DHT22;11930;53.076;18.250;2022-09-29T03:33:36;8.80;99.90
23507;DHT22;11930;53.076;18.250;2022-09-29T03:36:07;8.80;99.90
23507;DHT22;11930;53.076;18.250;2022-09-29T03:38:34;8.80;99.90
23507;DHT22;11930;53.076;18.250;2022-09-29T03:41:00;8.80;99.90
23507;DHT22;11930;53.076;18.250;2022-09-29T03:43:26;8.80;99.90
23507;DHT22;11930;53.076;18.250;2022-09-29T03:45:54;8.80;99.90
23507;DHT22;11930;53.076;18.250;2022-09-29T03:48:21;8.80;99.90
23507;DHT22;11930;53.076;18.250;2022-09-29T03:50:49;8.80;99.90
23507;DHT22;11930;53.076;18.250;2022-09-29T03:53:15;8.80;99.90
23507;DHT22;11930;53.076;18.250;2022-09-29T03:55:46;8.80;99.90
23507;DHT22;11930;53.076;18.250;2022-09-29T03:58:12;8.80;99.90
23507;DHT22;11930;53.076;18.250;2022-09-29T04:00:38;8.80;99.90
23507;DHT22;11930;53.076;18.250;2022-09-29T04:03:04;8.80;99.90
23507;DHT22;11930;53.076;18.250;2022-09-29T04:05:31;8.90;99.90
23507;DHT22;11930;53.076;18.250;2022-09-29T04:08:04;8.90;99.90
23507;DHT22;11930;53.076;18.250;2022-09-29T04:10:34;8.90;99.90
23507;DHT22;11930;53.076;18.250;2022-09-29T04:13:00;8.90;99.90
23507;DHT22;11930;53.076;18.250;2022-09-29T04:15:26;8.90;99.90
23507;DHT22;11930;53.076;18.250;2022-09-29T04:17:52;8.90;99.90
23507;DHT22;11930;53.076;18.250;2022-09-29T04:20:18;8.90;99.90
23507;DHT22;11930;53.076;18.250;2022-09-29T04:22:44;8.90;99.90
23507;DHT22;11930;53.076;18.250;2022-09-29T04:25:11;8.90;99.90
23507;DHT22;11930;53.076;18.250;2022-09-29T04:27:37;8.90;99.90
23507;DHT22;11930;53.076;18.250;2022-09-29T04:30:04;9.00;99.90
23507;DHT22;11930;53.076;18.250;2022-09-29T04:32:31;8.90;99.90
23507;DHT22;11930;53.076;18.250;2022-09-29T04:34:57;8.90;99.90
23507;DHT22;11930;53.076;18.250;2022-09-29T04:37:23;8.90;99.90
23507;DHT22;11930;53.076;18.250;2022-09-29T04:39:49;8.90;99.90
23507;DHT22;11930;53.076;18.250;2022-09-29T04:42:17;8.90;99.90
23507;DHT22;11930;53.076;18.250;2022-09-29T04:44:44;8.90;99.90
23507;DHT22;11930;53.076;18.250;2022-09-29T04:47:10;8.90;99.90
23507;DHT22;11930;53.076;18.250;2022-09-29T04:49:36;8.90;99.90
23507;DHT22;11930;53.076;18.250;2022-09-29T04:52:10;8.80;99.90
23507;DHT22;11930;53.076;18.250;2022-09-29T04:54:37;8.90;99.90
23507;DHT22;11930;53.076;18.250;2022-09-29T04:57:04;8.80;99.90
23507;DHT22;11930;53.076;18.250;2022-09-29T04:59:31;8.90;99.90
23507;DHT22;11930;53.076;18.250;2022-09-29T05:01:57;8.90;99.90
23507;DHT22;11930;53.076;18.250;2022-09-29T05:04:23;8.90;99.90
23507;DHT22;11930;53.076;18.250;2022-09-29T05:06:49;9.00;99.90
23507;DHT22;11930;53.076;18.250;2022-09-29T05:09:15;9.00;99.90
23507;DHT22;11930;53.076;18.250;2022-09-29T05:11:42;9.00;99.90
23507;DHT22;11930;53.076;18.250;2022-09-29T05:14:09;9.00;99.90
23507;DHT22;11930;53.076;18.250;2022-09-29T05:16:36;9.00;99.90
23507;DHT22;11930;53.076;18.250;2022-09-29T05:19:02;9.00;99.90
23507;DHT22;11930;53.076;18.250;2022-09-29T05:21:28;9.00;99.90
23507;DHT22;11930;53.076;18.250;2022-09-29T05:23:54;9.00;99.90
23507;DHT22;11930;53.076;18.250;2022-09-29T05:26:21;9.00;99.90
23507;DHT22;11930;53.076;18.250;2022-09-29T05:28:47;9.00;99.90
23507;DHT22;11930;53.076;18.250;2022-09-29T05:31:14;9.00;99.90
23507;DHT22;11930;53.076;18.250;2022-09-29T05:33:40;9.00;99.90
23507;DHT22;11930;53.076;18.250;2022-09-29T05:36:08;9.00;99.90
23507;DHT22;11930;53.076;18.250;2022-09-29T05:38:35;9.00;99.90
23507;DHT22;11930;53.076;18.250;2022-09-29T05:41:08;9.10;99.90
23507;DHT22;11930;53.076;18.250;2022-09-29T05:43:35;9.10;99.90
23507;DHT22;11930;53.076;18.250;2022-09-29T05:46:03;9.00;99.90
23507;DHT22;11930;53.076;18.250;2022-09-29T05:48:29;8.90;99.90
23507;DHT22;11930;53.076;18.250;2022-09-29T05:50:59;8.80;99.90
23507;DHT22;11930;53.076;18.250;2022-09-29T05:53:31;8.80;99.90
23507;DHT22;11930;53.076;18.250;2022-09-29T05:55:57;8.90;99.90
23507;DHT22;11930;53.076;18.250;2022-09-29T05:58:23;9.00;99.90
23507;DHT22;11930;53.076;18.250;2022-09-29T06:00:49;8.90;99.90
23507;DHT22;11930;53.076;18.250;2022-09-29T06:03:15;8.90;99.90
23507;DHT22;11930;53.076;18.250;2022-09-29T06:05:41;8.80;99.90
23507;DHT22;11930;53.076;18.250;2022-09-29T06:08:08;8.90;99.90
23507;DHT22;11930;53.076;18.250;2022-09-29T06:10:35;8.90;99.90
23507;DHT22;11930;53.076;18.250;2022-09-29T06:13:01;9.00;99.90
23507;DHT22;11930;53.076;18.250;2022-09-29T06:15:28;9.00;99.90
23507;DHT22;11930;53.076;18.250;2022-09-29T06:17:55;9.10;99.90
23507;DHT22;11930;53.076;18.250;2022-09-29T06:20:21;9.20;99.90
23507;DHT22;11930;53.076;18.250;2022-09-29T06:22:47;9.30;99.90
23507;DHT22;11930;53.076;18.250;2022-09-29T06:25:16;9.40;99.90
23507;DHT22;11930;53.076;18.250;2022-09-29T06:27:42;9.50;99.90
23507;DHT22;11930;53.076;18.250;2022-09-29T06:30:09;9.50;99.90
23507;DHT22;11930;53.076;18.250;2022-09-29T06:32:38;9.50;99.90
23507;DHT22;11930;53.076;18.250;2022-09-29T06:35:05;9.60;99.90
23507;DHT22;11930;53.076;18.250;2022-09-29T06:37:52;9.60;99.90
23507;DHT22;11930;53.076;18.250;2022-09-29T06:40:20;9.60;99.90
23507;DHT22;11930;53.076;18.250;2022-09-29T06:42:48;9.60;99.90
23507;DHT22;11930;53.076;18.250;2022-09-29T06:45:15;9.60;99.90
23507;DHT22;11930;53.076;18.250;2022-09-29T06:47:41;9.70;99.90
23507;DHT22;11930;53.076;18.250;2022-09-29T06:50:07;9.90;99.90
23507;DHT22;11930;53.076;18.250;2022-09-29T06:52:34;9.90;99.90
23507;DHT22;11930;53.076;18.250;2022-09-29T06:55:00;9.80;99.90
23507;DHT22;11930;53.076;18.250;2022-09-29T06:57:27;9.80;99.90
23507;DHT22;11930;53.076;18.250;2022-09-29T06:59:53;9.80;99.90
23507;DHT22;11930;53.076;18.250;2022-09-29T07:02:19;9.80;99.90
23507;DHT22;11930;53.076;18.250;2022-09-29T07:04:45;9.80;99.90
23507;DHT22;11930;53.076;18.250;2022-09-29T07:07:13;9.90;99.90
23507;DHT22;11930;53.076;18.250;2022-09-29T07:09:39;10.10;99.90
23507;DHT22;11930;53.076;18.250;2022-09-29T07:12:05;10.10;99.90
23507;DHT22;11930;53.076;18.250;2022-09-29T07:14:31;10.10;99.90
23507;DHT22;11930;53.076;18.250;2022-09-29T07:16:57;10.00;99.90
23507;DHT22;11930;53.076;18.250;2022-09-29T07:19:24;10.00;99.90
23507;DHT22;11930;53.076;18.250;2022-09-29T07:21:50;10.00;99.90
23507;DHT22;11930;53.076;18.250;2022-09-29T07:24:17;10.10;99.90
23507;DHT22;11930;53.076;18.250;2022-09-29T07:26:43;10.00;99.90
23507;DHT22;11930;53.076;18.250;2022-09-29T07:29:09;10.00;99.90
23507;DHT22;11930;53.076;18.250;2022-09-29T07:31:35;9.90;99.90
23507;DHT22;11930;53.076;18.250;2022-09-29T07:34:01;9.70;99.90
23507;DHT22;11930;53.076;18.250;2022-09-29T07:36:27;9.70;99.90
23507;DHT22;11930;53.076;18.250;2022-09-29T07:38:53;9.60;99.90
23507;DHT22;11930;53.076;18.250;2022-09-29T07:41:20;9.70;99.90
23507;DHT22;11930;53.076;18.250;2022-09-29T07:43:47;9.70;99.90
23507;DHT22;11930;53.076;18.250;2022-09-29T07:46:13;9.80;99.90
23507;DHT22;11930;53.076;18.250;2022-09-29T07:48:39;9.80;99.90
23507;DHT22;11930;53.076;18.250;2022-09-29T07:51:23;9.80;99.90
23507;DHT22;11930;53.076;18.250;2022-09-29T07:53:49;9.90;99.90
23507;DHT22;11930;53.076;18.250;2022-09-29T07:56:20;10.10;99.90
23507;DHT22;11930;53.076;18.250;2022-09-29T07:58:48;10.30;99.90
23507;DHT22;11930;53.076;18.250;2022-09-29T08:01:15;10.40;99.90
23507;DHT22;11930;53.076;18.250;2022-09-29T08:03:52;10.50;99.90
23507;DHT22;11930;53.076;18.250;2022-09-29T08:06:20;10.60;99.90
23507;DHT22;11930;53.076;18.250;2022-09-29T08:08:46;10.70;99.90
23507;DHT22;11930;53.076;18.250;2022-09-29T08:11:15;10.80;99.90
23507;DHT22;11930;53.076;18.250;2022-09-29T08:13:41;11.00;99.90
23507;DHT22;11930;53.076;18.250;2022-09-29T08:16:11;11.20;99.90
23507;DHT22;11930;53.076;18.250;2022-09-29T08:18:37;11.20;99.90
23507;DHT22;11930;53.076;18.250;2022-09-29T08:21:04;11.20;99.90
23507;DHT22;11930;53.076;18.250;2022-09-29T08:23:35;11.30;99.90
23507;DHT22;11930;53.076;18.250;2022-09-29T08:26:14;11.40;99.90
23507;DHT22;11930;53.076;18.250;2022-09-29T08:28:42;11.30;99.90
23507;DHT22;11930;53.076;18.250;2022-09-29T08:31:10;11.30;99.90
23507;DHT22;11930;53.076;18.250;2022-09-29T08:33:36;11.40;99.90
23507;DHT22;11930;53.076;18.250;2022-09-29T08:36:03;11.30;99.90
23507;DHT22;11930;53.076;18.250;2022-09-29T08:38:47;11.50;99.90
23507;DHT22;11930;53.076;18.250;2022-09-29T08:52:23;12.00;99.90
23507;DHT22;11930;53.076;18.250;2022-09-29T08:54:55;12.20;99.90
23507;DHT22;11930;53.076;18.250;2022-09-29T08:57:24;12.30;99.90
23507;DHT22;11930;53.076;18.250;2022-09-29T08:59:58;12.50;99.90
23507;DHT22;11930;53.076;18.250;2022-09-29T09:13:52;12.50;99.90
23507;DHT22;11930;53.076;18.250;2022-09-29T09:19:08;12.60;99.90
23507;DHT22;11930;53.076;18.250;2022-09-29T09:24:21;12.70;99.90
23507;DHT22;11930;53.076;18.250;2022-09-29T09:26:51;12.90;99.90
23507;DHT22;11930;53.076;18.250;2022-09-29T09:32:02;12.80;99.90
23507;DHT22;11930;53.076;18.250;2022-09-29T09:34:41;12.80;99.90
23507;DHT22;11930;53.076;18.250;2022-09-29T09:37:23;12.80;99.90
23507;DHT22;11930;53.076;18.250;2022-09-29T09:42:49;13.10;99.90
23507;DHT22;11930;53.076;18.250;2022-09-29T09:48:10;13.00;99.90
23507;DHT22;11930;53.076;18.250;2022-09-29T09:50:40;13.10;99.90
23507;DHT22;11930;53.076;18.250;2022-09-29T09:53:19;13.20;99.90
23507;DHT22;11930;53.076;18.250;2022-09-29T09:55:57;13.10;99.90
23507;DHT22;11930;53.076;18.250;2022-09-29T09:58:48;13.00;99.90
23507;DHT22;11930;53.076;18.250;2022-09-29T10:01:19;13.00;99.90
23507;DHT22;11930;53.076;18.250;2022-09-29T10:03:45;13.00;99.90
23507;DHT22;11930;53.076;18.250;2022-09-29T10:06:11;13.10;99.90
23507;DHT22;11930;53.076;18.250;2022-09-29T10:08:39;13.00;99.90
23507;DHT22;11930;53.076;18.250;2022-09-29T10:13:51;12.80;99.90
23507;DHT22;11930;53.076;18.250;2022-09-29T10:16:29;12.70;99.90
23507;DHT22;11930;53.076;18.250;2022-09-29T10:18:57;12.60;99.90
23507;DHT22;11930;53.076;18.250;2022-09-29T10:23:55;12.40;99.90
23507;DHT22;11930;53.076;18.250;2022-09-29T10:26:22;12.40;99.90
23507;DHT22;11930;53.076;18.250;2022-09-29T10:29:54;12.60;99.90
23507;DHT22;11930;53.076;18.250;2022-09-29T10:32:28;12.60;99.90
23507;DHT22;11930;53.076;18.250;2022-09-29T10:35:15;12.60;99.90
23507;DHT22;11930;53.076;18.250;2022-09-29T10:37:46;12.60;99.90
23507;DHT22;11930;53.076;18.250;2022-09-29T10:42:43;13.00;99.90
23507;DHT22;11930;53.076;18.250;2022-09-29T10:45:20;13.40;99.90
23507;DHT22;11930;53.076;18.250;2022-09-29T10:50:26;13.90;99.90
23507;DHT22;11930;53.076;18.250;2022-09-29T10:52:57;14.30;99.90
23507;DHT22;11930;53.076;18.250;2022-09-29T10:55:26;13.90;99.90
23507;DHT22;11930;53.076;18.250;2022-09-29T10:57:59;13.90;99.90
23507;DHT22;11930;53.076;18.250;2022-09-29T11:00:35;13.90;99.90
23507;DHT22;11930;53.076;18.250;2022-09-29T11:03:20;13.80;99.90
23507;DHT22;11930;53.076;18.250;2022-09-29T11:06:19;13.60;99.90
23507;DHT22;11930;53.076;18.250;2022-09-29T11:09:00;13.40;99.90
23507;DHT22;11930;53.076;18.250;2022-09-29T11:13:55;13.40;99.90
23507;DHT22;11930;53.076;18.250;2022-09-29T11:16:36;13.30;99.90
23507;DHT22;11930;53.076;18.250;2022-09-29T11:19:11;13.30;99.90
23507;DHT22;11930;53.076;18.250;2022-09-29T11:30:02;12.80;99.90
23507;DHT22;11930;53.076;18.250;2022-09-29T11:32:41;12.70;99.90
23507;DHT22;11930;53.076;18.250;2022-09-29T11:38:10;12.80;99.90
23507;DHT22;11930;53.076;18.250;2022-09-29T11:45:43;12.70;99.90
23507;DHT22;11930;53.076;18.250;2022-09-29T11:51:16;12.70;99.90
23507;DHT22;11930;53.076;18.250;2022-09-29T12:06:27;13.50;99.90
23507;DHT22;11930;53.076;18.250;2022-09-29T12:12:01;13.80;99.90
23507;DHT22;11930;53.076;18.250;2022-09-29T12:17:21;13.80;99.90
23507;DHT22;11930;53.076;18.250;2022-09-29T12:19:56;13.70;99.90
23507;DHT22;11930;53.076;18.250;2022-09-29T12:22:24;13.80;99.90
23507;DHT22;11930;53.076;18.250;2022-09-29T12:24:53;13.80;99.90
23507;DHT22;11930;53.076;18.250;2022-09-29T12:27:24;13.90;99.90
23507;DHT22;11930;53.076;18.250;2022-09-29T12:29:56;14.10;99.90
23507;DHT22;11930;53.076;18.250;2022-09-29T12:32:28;14.20;99.90
23507;DHT22;11930;53.076;18.250;2022-09-29T12:38:17;14.30;99.90
23507;DHT22;11930;53.076;18.250;2022-09-29T12:51:25;14.30;99.90
23507;DHT22;11930;53.076;18.250;2022-09-29T12:56:44;14.30;99.90
23507;DHT22;11930;53.076;18.250;2022-09-29T13:01:56;14.30;99.90
23507;DHT22;11930;53.076;18.250;2022-09-29T13:07:38;14.10;99.90
23507;DHT22;11930;53.076;18.250;2022-09-29T13:18:41;14.00;99.90
23507;DHT22;11930;53.076;18.250;2022-09-29T13:24:23;14.00;99.90
23507;DHT22;11930;53.076;18.250;2022-09-29T13:27:26;14.10;99.90
23507;DHT22;11930;53.076;18.250;2022-09-29T13:35:22;14.30;99.90
23507;DHT22;11930;53.076;18.250;2022-09-29T13:38:04;14.30;99.90
23507;DHT22;11930;53.076;18.250;2022-09-29T13:40:31;14.40;99.90
23507;DHT22;11930;53.076;18.250;2022-09-29T13:43:02;14.40;99.90
23507;DHT22;11930;53.076;18.250;2022-09-29T13:48:01;14.40;99.90
23507;DHT22;11930;53.076;18.250;2022-09-29T13:50:40;14.40;99.90
23507;DHT22;11930;53.076;18.250;2022-09-29T14:00:59;14.20;99.90
23507;DHT22;11930;53.076;18.250;2022-09-29T14:03:36;14.20;99.90
23507;DHT22;11930;53.076;18.250;2022-09-29T14:06:25;14.20;99.90
23507;DHT22;11930;53.076;18.250;2022-09-29T14:09:12;14.10;99.90
23507;DHT22;11930;53.076;18.250;2022-09-29T14:11:43;14.00;99.90
23507;DHT22;11930;53.076;18.250;2022-09-29T14:19:41;13.60;99.90
23507;DHT22;11930;53.076;18.250;2022-09-29T14:35:38;13.10;99.90
23507;DHT22;11930;53.076;18.250;2022-09-29T14:38:53;13.10;99.90
23507;DHT22;11930;53.076;18.250;2022-09-29T14:41:25;13.00;99.90
23507;DHT22;11930;53.076;18.250;2022-09-29T14:43:54;12.90;99.90
23507;DHT22;11930;53.076;18.250;2022-09-29T14:49:49;12.80;99.90
23507;DHT22;11930;53.076;18.250;2022-09-29T14:52:45;12.70;99.90
23507;DHT22;11930;53.076;18.250;2022-09-29T15:08:38;12.40;99.90
23507;DHT22;11930;53.076;18.250;2022-09-29T15:11:24;12.40;99.90
23507;DHT22;11930;53.076;18.250;2022-09-29T15:13:53;12.30;99.90
23507;DHT22;11930;53.076;18.250;2022-09-29T15:16:28;12.20;99.90
23507;DHT22;11930;53.076;18.250;2022-09-29T15:27:31;12.00;99.90
23507;DHT22;11930;53.076;18.250;2022-09-29T15:29:58;12.00;99.90
23507;DHT22;11930;53.076;18.250;2022-09-29T15:32:29;11.90;99.90
23507;DHT22;11930;53.076;18.250;2022-09-29T15:35:04;11.90;99.90
23507;DHT22;11930;53.076;18.250;2022-09-29T15:38:00;11.80;99.90
23507;DHT22;11930;53.076;18.250;2022-09-29T15:40:40;11.70;99.90
23507;DHT22;11930;53.076;18.250;2022-09-29T15:43:28;11.60;99.90
23507;DHT22;11930;53.076;18.250;2022-09-29T15:45:57;11.50;99.90
23507;DHT22;11930;53.076;18.250;2022-09-29T15:48:25;11.50;99.90
23507;DHT22;11930;53.076;18.250;2022-09-29T15:50:52;11.50;99.90
23507;DHT22;11930;53.076;18.250;2022-09-29T15:53:25;11.50;99.90
23507;DHT22;11930;53.076;18.250;2022-09-29T15:55:53;11.30;99.90
23507;DHT22;11930;53.076;18.250;2022-09-29T16:01:00;11.10;99.90
23507;DHT22;11930;53.076;18.250;2022-09-29T16:03:44;10.90;99.90
23507;DHT22;11930;53.076;18.250;2022-09-29T16:06:31;10.80;99.90
23507;DHT22;11930;53.076;18.250;2022-09-29T16:09:03;10.60;99.90
23507;DHT22;11930;53.076;18.250;2022-09-29T16:11:34;10.40;99.90
23507;DHT22;11930;53.076;18.250;2022-09-29T16:14:05;10.30;99.90
23507;DHT22;11930;53.076;18.250;2022-09-29T16:16:36;10.10;99.90
23507;DHT22;11930;53.076;18.250;2022-09-29T16:19:29;9.90;99.90
23507;DHT22;11930;53.076;18.250;2022-09-29T16:22:00;9.70;99.90
23507;DHT22;11930;53.076;18.250;2022-09-29T16:24:30;9.40;99.90
23507;DHT22;11930;53.076;18.250;2022-09-29T16:26:57;9.30;99.90
23507;DHT22;11930;53.076;18.250;2022-09-29T16:31:52;8.90;99.90
23507;DHT22;11930;53.076;18.250;2022-09-29T16:36:57;8.60;99.90
23507;DHT22;11930;53.076;18.250;2022-09-29T16:39:27;8.40;99.90
23507;DHT22;11930;53.076;18.250;2022-09-29T16:41:56;8.30;99.90
23507;DHT22;11930;53.076;18.250;2022-09-29T16:44:27;8.20;99.90
23507;DHT22;11930;53.076;18.250;2022-09-29T16:49:37;8.00;99.90
23507;DHT22;11930;53.076;18.250;2022-09-29T16:52:19;7.90;99.90
23507;DHT22;11930;53.076;18.250;2022-09-29T16:54:53;7.80;99.90
23507;DHT22;11930;53.076;18.250;2022-09-29T16:57:30;7.70;99.90
23507;DHT22;11930;53.076;18.250;2022-09-29T16:59:59;7.70;99.90
23507;DHT22;11930;53.076;18.250;2022-09-29T17:02:27;7.60;99.90
23507;DHT22;11930;53.076;18.250;2022-09-29T17:04:54;7.60;99.90
23507;DHT22;11930;53.076;18.250;2022-09-29T17:07:26;7.60;99.90
23507;DHT22;11930;53.076;18.250;2022-09-29T17:09:55;7.60;99.90
23507;DHT22;11930;53.076;18.250;2022-09-29T17:12:22;7.50;99.90
23507;DHT22;11930;53.076;18.250;2022-09-29T17:14:49;7.60;99.90
23507;DHT22;11930;53.076;18.250;2022-09-29T17:17:26;7.60;99.90
23507;DHT22;11930;53.076;18.250;2022-09-29T17:19:54;7.70;99.90
23507;DHT22;11930;53.076;18.250;2022-09-29T17:22:31;7.70;99.90
23507;DHT22;11930;53.076;18.250;2022-09-29T17:24:58;7.80;99.90
23507;DHT22;11930;53.076;18.250;2022-09-29T17:27:26;7.90;99.90
23507;DHT22;11930;53.076;18.250;2022-09-29T17:30:12;7.90;99.90
23507;DHT22;11930;53.076;18.250;2022-09-29T17:32:43;7.90;99.90
23507;DHT22;11930;53.076;18.250;2022-09-29T17:35:12;7.90;99.90
23507;DHT22;11930;53.076;18.250;2022-09-29T17:37:40;7.80;99.90
23507;DHT22;11930;53.076;18.250;2022-09-29T17:40:17;7.80;99.90
23507;DHT22;11930;53.076;18.250;2022-09-29T17:42:45;7.70;99.90
23507;DHT22;11930;53.076;18.250;2022-09-29T17:45:16;7.60;99.90
23507;DHT22;11930;53.076;18.250;2022-09-29T17:47:43;7.60;99.90
23507;DHT22;11930;53.076;18.250;2022-09-29T17:50:21;7.50;99.90
23507;DHT22;11930;53.076;18.250;2022-09-29T17:52:48;7.40;99.90
23507;DHT22;11930;53.076;18.250;2022-09-29T17:55:14;7.30;99.90
23507;DHT22;11930;53.076;18.250;2022-09-29T17:57:41;7.20;99.90
23507;DHT22;11930;53.076;18.250;2022-09-29T18:00:16;7.20;99.90
23507;DHT22;11930;53.076;18.250;2022-09-29T18:02:44;7.10;99.90
23507;DHT22;11930;53.076;18.250;2022-09-29T18:05:11;7.10;99.90
23507;DHT22;11930;53.076;18.250;2022-09-29T18:07:37;7.00;99.90
23507;DHT22;11930;53.076;18.250;2022-09-29T18:10:27;6.90;99.90
23507;DHT22;11930;53.076;18.250;2022-09-29T18:12:54;6.80;99.90
23507;DHT22;11930;53.076;18.250;2022-09-29T18:15:21;6.80;99.90
23507;DHT22;11930;53.076;18.250;2022-09-29T18:17:48;6.70;99.90
23507;DHT22;11930;53.076;18.250;2022-09-29T18:20:19;6.60;99.90
23507;DHT22;11930;53.076;18.250;2022-09-29T18:22:47;6.50;99.90
23507;DHT22;11930;53.076;18.250;2022-09-29T18:25:14;6.40;99.90
23507;DHT22;11930;53.076;18.250;2022-09-29T18:27:43;6.30;99.90
23507;DHT22;11930;53.076;18.250;2022-09-29T18:30:23;6.30;99.90
23507;DHT22;11930;53.076;18.250;2022-09-29T18:32:52;6.20;99.90
23507;DHT22;11930;53.076;18.250;2022-09-29T18:35:21;6.10;99.90
23507;DHT22;11930;53.076;18.250;2022-09-29T18:37:51;6.00;99.90
23507;DHT22;11930;53.076;18.250;2022-09-29T18:40:18;5.90;99.90
23507;DHT22;11930;53.076;18.250;2022-09-29T18:42:47;5.80;99.90
23507;DHT22;11930;53.076;18.250;2022-09-29T18:45:15;5.80;99.90
23507;DHT22;11930;53.076;18.250;2022-09-29T18:47:49;5.70;99.90
23507;DHT22;11930;53.076;18.250;2022-09-29T18:50:19;5.60;99.90
23507;DHT22;11930;53.076;18.250;2022-09-29T18:52:46;5.50;99.90
23507;DHT22;11930;53.076;18.250;2022-09-29T18:55:14;5.50;99.90
23507;DHT22;11930;53.076;18.250;2022-09-29T18:57:41;5.50;99.90
23507;DHT22;11930;53.076;18.250;2022-09-29T19:00:10;5.50;99.90
23507;DHT22;11930;53.076;18.250;2022-09-29T19:02:38;5.50;99.90
23507;DHT22;11930;53.076;18.250;2022-09-29T19:05:04;5.40;99.90
23507;DHT22;11930;53.076;18.250;2022-09-29T19:07:33;5.50;99.90
23507;DHT22;11930;53.076;18.250;2022-09-29T19:10:00;5.40;99.90
23507;DHT22;11930;53.076;18.250;2022-09-29T19:12:26;5.30;99.90
23507;DHT22;11930;53.076;18.250;2022-09-29T19:14:55;5.30;99.90
23507;DHT22;11930;53.076;18.250;2022-09-29T19:17:24;5.20;99.90
23507;DHT22;11930;53.076;18.250;2022-09-29T19:19:51;5.10;99.90
23507;DHT22;11930;53.076;18.250;2022-09-29T19:22:17;5.10;99.90
23507;DHT22;11930;53.076;18.250;2022-09-29T19:24:45;5.00;99.90
23507;DHT22;11930;53.076;18.250;2022-09-29T19:27:11;5.00;99.90
23507;DHT22;11930;53.076;18.250;2022-09-29T19:29:37;4.90;99.90